sensor_id;sensor_type;location;lat;lon;timestamp;P1;durP1;ratioP1;P2;durP2;ratioP2
48727;SDS011;34527;45.618;5.130;2022-12-15T00:01:00;13.60;;;10.43;;
48727;SDS011;34527;45.618;5.130;2022-12-15T00:03:44;14.23;;;10.52;;
48727;SDS011;34527;45.618;5.130;2022-12-15T00:06:29;19.08;;;12.00;;
48727;SDS011;34527;45.618;5.130;2022-12-15T00:09:13;14.88;;;11.30;;
48727;SDS011;34527;45.618;5.130;2022-12-15T00:11:57;18.20;;;12.17;;
48727;SDS011;34527;45.618;5.130;2022-12-15T00:14:41;14.63;;;11.38;;
48727;SDS011;34527;45.618;5.130;2022-12-15T00:17:26;16.50;;;12.07;;
48727;SDS011;34527;45.618;5.130;2022-12-15T00:20:10;20.17;;;12.50;;
48727;SDS011;34527;45.618;5.130;2022-12-15T00:22:54;15.25;;;11.23;;
48727;SDS011;34527;45.618;5.130;2022-12-15T00:25:38;13.20;;;9.70;;
48727;SDS011;34527;45.618;5.130;2022-12-15T00:28:22;14.95;;;8.68;;
48727;SDS011;34527;45.618;5.130;2022-12-15T00:31:06;12.82;;;9.00;;
48727;SDS011;34527;45.618;5.130;2022-12-15T00:33:50;12.47;;;8.27;;
48727;SDS011;34527;45.618;5.130;2022-12-15T00:36:34;10.47;;;8.43;;
48727;SDS011;34527;45.618;5.130;2022-12-15T00:39:19;11.20;;;9.15;;
48727;SDS011;34527;45.618;5.130;2022-12-15T00:41:45;13.27;;;9.75;;
48727;SDS011;34527;45.618;5.130;2022-12-15T00:44:11;12.40;;;9.23;;
48727;SDS011;34527;45.618;5.130;2022-12-15T00:46:36;12.98;;;9.23;;
48727;SDS011;34527;45.618;5.130;2022-12-15T00:49:21;11.57;;;9.18;;
48727;SDS011;34527;45.618;5.130;2022-12-15T00:52:07;11.85;;;9.18;;
48727;SDS011;34527;45.618;5.130;2022-12-15T00:54:51;12.98;;;9.68;;
48727;SDS011;34527;45.618;5.130;2022-12-15T00:57:36;13.48;;;9.95;;
48727;SDS011;34527;45.618;5.130;2022-12-15T01:00:20;12.27;;;9.80;;
48727;SDS011;34527;45.618;5.130;2022-12-15T01:03:09;12.07;;;8.68;;
48727;SDS011;34527;45.618;5.130;2022-12-15T01:05:56;12.57;;;9.95;;
48727;SDS011;34527;45.618;5.130;2022-12-15T01:08:41;13.15;;;9.43;;
48727;SDS011;34527;45.618;5.130;2022-12-15T01:11:26;12.52;;;9.60;;
48727;SDS011;34527;45.618;5.130;2022-12-15T01:14:11;9.57;;;7.70;;
48727;SDS011;34527;45.618;5.130;2022-12-15T01:19:40;9.15;;;6.90;;
48727;SDS011;34527;45.618;5.130;2022-12-15T01:22:24;11.27;;;8.00;;
48727;SDS011;34527;45.618;5.130;2022-12-15T01:24:50;10.13;;;7.47;;
48727;SDS011;34527;45.618;5.130;2022-12-15T01:27:16;11.05;;;8.15;;
48727;SDS011;34527;45.618;5.130;2022-12-15T01:29:42;13.07;;;8.90;;
48727;SDS011;34527;45.618;5.130;2022-12-15T01:32:08;11.00;;;9.00;;
48727;SDS011;34527;45.618;5.130;2022-12-15T01:34:34;13.68;;;9.05;;
48727;SDS011;34527;45.618;5.130;2022-12-15T01:37:00;9.43;;;7.88;;
48727;SDS011;34527;45.618;5.130;2022-12-15T01:39:25;9.68;;;7.90;;
48727;SDS011;34527;45.618;5.130;2022-12-15T01:42:11;8.68;;;7.60;;
48727;SDS011;34527;45.618;5.130;2022-12-15T01:44:38;8.82;;;7.57;;
48727;SDS011;34527;45.618;5.130;2022-12-15T01:47:03;8.93;;;7.75;;
48727;SDS011;34527;45.618;5.130;2022-12-15T01:49:32;12.43;;;7.80;;
48727;SDS011;34527;45.618;5.130;2022-12-15T01:51:59;11.05;;;8.80;;
48727;SDS011;34527;45.618;5.130;2022-12-15T01:54:32;10.10;;;8.40;;
48727;SDS011;34527;45.618;5.130;2022-12-15T01:57:13;10.57;;;8.07;;
48727;SDS011;34527;45.618;5.130;2022-12-15T01:59:44;11.88;;;8.50;;
48727;SDS011;34527;45.618;5.130;2022-12-15T02:02:15;11.23;;;8.30;;
48727;SDS011;34527;45.618;5.130;2022-12-15T02:04:43;12.75;;;9.30;;
48727;SDS011;34527;45.618;5.130;2022-12-15T02:07:13;13.82;;;9.32;;
48727;SDS011;34527;45.618;5.130;2022-12-15T02:09:40;11.85;;;9.20;;
48727;SDS011;34527;45.618;5.130;2022-12-15T02:15:26;11.98;;;9.00;;
48727;SDS011;34527;45.618;5.130;2022-12-15T02:20:39;11.75;;;8.52;;
48727;SDS011;34527;45.618;5.130;2022-12-15T02:23:19;13.00;;;8.57;;
48727;SDS011;34527;45.618;5.130;2022-12-15T02:31:53;9.30;;;7.47;;
48727;SDS011;34527;45.618;5.130;2022-12-15T02:34:48;12.13;;;8.05;;
48727;SDS011;34527;45.618;5.130;2022-12-15T02:37:28;9.35;;;7.47;;
48727;SDS011;34527;45.618;5.130;2022-12-15T02:39:57;9.77;;;8.13;;
48727;SDS011;34527;45.618;5.130;2022-12-15T02:42:23;12.52;;;8.63;;
48727;SDS011;34527;45.618;5.130;2022-12-15T02:44:54;10.98;;;8.23;;
48727;SDS011;34527;45.618;5.130;2022-12-15T02:47:26;10.05;;;7.85;;
48727;SDS011;34527;45.618;5.130;2022-12-15T02:57:54;12.27;;;7.68;;
48727;SDS011;34527;45.618;5.130;2022-12-15T03:00:28;11.32;;;8.27;;
48727;SDS011;34527;45.618;5.130;2022-12-15T03:02:57;12.80;;;8.02;;
48727;SDS011;34527;45.618;5.130;2022-12-15T03:05:23;12.85;;;9.13;;
48727;SDS011;34527;45.618;5.130;2022-12-15T03:07:51;14.48;;;9.75;;
48727;SDS011;34527;45.618;5.130;2022-12-15T03:10:19;10.65;;;8.40;;
48727;SDS011;34527;45.618;5.130;2022-12-15T03:12:48;11.80;;;7.57;;
48727;SDS011;34527;45.618;5.130;2022-12-15T03:15:18;9.07;;;7.13;;
48727;SDS011;34527;45.618;5.130;2022-12-15T03:17:44;9.95;;;7.75;;
48727;SDS011;34527;45.618;5.130;2022-12-15T03:20:11;10.43;;;8.13;;
48727;SDS011;34527;45.618;5.130;2022-12-15T03:22:37;9.65;;;7.32;;
48727;SDS011;34527;45.618;5.130;2022-12-15T03:25:03;8.20;;;6.90;;
48727;SDS011;34527;45.618;5.130;2022-12-15T03:27:29;9.73;;;7.65;;
48727;SDS011;34527;45.618;5.130;2022-12-15T03:29:55;9.48;;;6.93;;
48727;SDS011;34527;45.618;5.130;2022-12-15T03:32:21;9.27;;;7.53;;
48727;SDS011;34527;45.618;5.130;2022-12-15T03:34:47;11.80;;;7.88;;
48727;SDS011;34527;45.618;5.130;2022-12-15T03:37:13;11.27;;;7.38;;
48727;SDS011;34527;45.618;5.130;2022-12-15T03:39:39;10.57;;;7.53;;
48727;SDS011;34527;45.618;5.130;2022-12-15T03:42:05;9.45;;;7.13;;
48727;SDS011;34527;45.618;5.130;2022-12-15T03:44:31;9.70;;;7.10;;
48727;SDS011;34527;45.618;5.130;2022-12-15T03:46:57;13.55;;;8.43;;
48727;SDS011;34527;45.618;5.130;2022-12-15T03:49:22;13.75;;;8.32;;
48727;SDS011;34527;45.618;5.130;2022-12-15T03:51:48;11.88;;;7.72;;
48727;SDS011;34527;45.618;5.130;2022-12-15T03:54:14;10.85;;;7.65;;
48727;SDS011;34527;45.618;5.130;2022-12-15T03:56:40;10.77;;;7.53;;
48727;SDS011;34527;45.618;5.130;2022-12-15T03:59:06;11.05;;;7.22;;
48727;SDS011;34527;45.618;5.130;2022-12-15T04:01:32;9.43;;;6.90;;
48727;SDS011;34527;45.618;5.130;2022-12-15T04:03:59;10.13;;;6.93;;
48727;SDS011;34527;45.618;5.130;2022-12-15T04:06:26;9.02;;;6.63;;
48727;SDS011;34527;45.618;5.130;2022-12-15T04:08:51;10.43;;;6.15;;
48727;SDS011;34527;45.618;5.130;2022-12-15T04:11:17;8.95;;;6.05;;
48727;SDS011;34527;45.618;5.130;2022-12-15T04:13:43;11.15;;;7.25;;
48727;SDS011;34527;45.618;5.130;2022-12-15T04:16:09;9.27;;;7.03;;
48727;SDS011;34527;45.618;5.130;2022-12-15T04:18:35;9.88;;;7.40;;
48727;SDS011;34527;45.618;5.130;2022-12-15T04:21:01;7.95;;;5.88;;
48727;SDS011;34527;45.618;5.130;2022-12-15T04:23:28;8.27;;;5.40;;
48727;SDS011;34527;45.618;5.130;2022-12-15T04:25:54;9.88;;;5.63;;
48727;SDS011;34527;45.618;5.130;2022-12-15T04:28:38;8.25;;;5.20;;
48727;SDS011;34527;45.618;5.130;2022-12-15T04:31:23;9.33;;;5.37;;
48727;SDS011;34527;45.618;5.130;2022-12-15T04:34:19;5.47;;;4.15;;
48727;SDS011;34527;45.618;5.130;2022-12-15T04:37:06;5.38;;;4.00;;
48727;SDS011;34527;45.618;5.130;2022-12-15T04:39:54;6.70;;;4.18;;
48727;SDS011;34527;45.618;5.130;2022-12-15T04:45:24;5.30;;;3.78;;
48727;SDS011;34527;45.618;5.130;2022-12-15T04:48:09;6.13;;;3.40;;
48727;SDS011;34527;45.618;5.130;2022-12-15T04:50:53;5.63;;;3.00;;
48727;SDS011;34527;45.618;5.130;2022-12-15T04:53:38;7.07;;;3.08;;
48727;SDS011;34527;45.618;5.130;2022-12-15T04:56:22;3.28;;;2.65;;
48727;SDS011;34527;45.618;5.130;2022-12-15T04:59:07;2.92;;;2.63;;
48727;SDS011;34527;45.618;5.130;2022-12-15T05:01:51;3.10;;;2.80;;
48727;SDS011;34527;45.618;5.130;2022-12-15T05:04:35;4.13;;;2.90;;
48727;SDS011;34527;45.618;5.130;2022-12-15T05:07:19;4.25;;;3.25;;
48727;SDS011;34527;45.618;5.130;2022-12-15T05:10:04;5.55;;;3.40;;
48727;SDS011;34527;45.618;5.130;2022-12-15T05:12:49;4.90;;;3.83;;
48727;SDS011;34527;45.618;5.130;2022-12-15T05:15:33;7.10;;;4.40;;
48727;SDS011;34527;45.618;5.130;2022-12-15T05:18:17;7.07;;;4.90;;
48727;SDS011;34527;45.618;5.130;2022-12-15T05:21:02;7.20;;;5.05;;
48727;SDS011;34527;45.618;5.130;2022-12-15T05:23:47;5.15;;;4.13;;
48727;SDS011;34527;45.618;5.130;2022-12-15T05:26:31;7.80;;;5.10;;
48727;SDS011;34527;45.618;5.130;2022-12-15T05:29:15;6.77;;;5.33;;
48727;SDS011;34527;45.618;5.130;2022-12-15T05:31:59;9.70;;;6.53;;
48727;SDS011;34527;45.618;5.130;2022-12-15T05:34:32;11.90;;;7.35;;
48727;SDS011;34527;45.618;5.130;2022-12-15T05:37:00;13.30;;;8.15;;
48727;SDS011;34527;45.618;5.130;2022-12-15T05:39:27;10.98;;;7.65;;
48727;SDS011;34527;45.618;5.130;2022-12-15T05:41:54;12.85;;;8.27;;
48727;SDS011;34527;45.618;5.130;2022-12-15T05:44:21;12.73;;;8.50;;
48727;SDS011;34527;45.618;5.130;2022-12-15T05:46:47;11.55;;;9.13;;
48727;SDS011;34527;45.618;5.130;2022-12-15T05:49:14;14.18;;;9.25;;
48727;SDS011;34527;45.618;5.130;2022-12-15T05:51:42;10.82;;;8.63;;
48727;SDS011;34527;45.618;5.130;2022-12-15T05:54:10;10.75;;;8.35;;
48727;SDS011;34527;45.618;5.130;2022-12-15T05:56:39;10.18;;;7.35;;
48727;SDS011;34527;45.618;5.130;2022-12-15T05:59:05;9.60;;;7.43;;
48727;SDS011;34527;45.618;5.130;2022-12-15T06:01:31;9.68;;;7.40;;
48727;SDS011;34527;45.618;5.130;2022-12-15T06:03:59;8.00;;;6.55;;
48727;SDS011;34527;45.618;5.130;2022-12-15T06:06:25;10.32;;;6.97;;
48727;SDS011;34527;45.618;5.130;2022-12-15T06:08:51;9.07;;;6.05;;
48727;SDS011;34527;45.618;5.130;2022-12-15T06:11:18;10.05;;;6.43;;
48727;SDS011;34527;45.618;5.130;2022-12-15T06:13:45;8.35;;;6.38;;
48727;SDS011;34527;45.618;5.130;2022-12-15T06:16:12;16.73;;;7.75;;
48727;SDS011;34527;45.618;5.130;2022-12-15T06:18:44;8.88;;;6.60;;
48727;SDS011;34527;45.618;5.130;2022-12-15T06:21:12;9.55;;;6.82;;
48727;SDS011;34527;45.618;5.130;2022-12-15T06:23:40;9.48;;;6.68;;
48727;SDS011;34527;45.618;5.130;2022-12-15T06:28:55;7.57;;;6.03;;
48727;SDS011;34527;45.618;5.130;2022-12-15T06:31:22;8.05;;;6.35;;
48727;SDS011;34527;45.618;5.130;2022-12-15T06:33:50;8.68;;;6.38;;
48727;SDS011;34527;45.618;5.130;2022-12-15T06:36:17;7.43;;;6.18;;
48727;SDS011;34527;45.618;5.130;2022-12-15T06:38:43;11.45;;;6.70;;
48727;SDS011;34527;45.618;5.130;2022-12-15T06:41:11;8.15;;;6.28;;
48727;SDS011;34527;45.618;5.130;2022-12-15T06:43:39;8.02;;;6.00;;
48727;SDS011;34527;45.618;5.130;2022-12-15T06:46:06;17.75;;;10.60;;
48727;SDS011;34527;45.618;5.130;2022-12-15T06:48:33;16.23;;;10.15;;
48727;SDS011;34527;45.618;5.130;2022-12-15T06:51:05;15.13;;;9.80;;
48727;SDS011;34527;45.618;5.130;2022-12-15T06:53:35;15.68;;;10.30;;
48727;SDS011;34527;45.618;5.130;2022-12-15T06:56:03;57.78;;;28.02;;
48727;SDS011;34527;45.618;5.130;2022-12-15T06:58:31;43.05;;;23.10;;
48727;SDS011;34527;45.618;5.130;2022-12-15T07:00:57;28.63;;;17.27;;
48727;SDS011;34527;45.618;5.130;2022-12-15T07:03:23;34.05;;;19.17;;
48727;SDS011;34527;45.618;5.130;2022-12-15T07:05:58;26.10;;;15.77;;
48727;SDS011;34527;45.618;5.130;2022-12-15T07:08:30;33.80;;;17.42;;
48727;SDS011;34527;45.618;5.130;2022-12-15T07:10:57;16.58;;;8.82;;
48727;SDS011;34527;45.618;5.130;2022-12-15T07:13:22;11.63;;;8.15;;
48727;SDS011;34527;45.618;5.130;2022-12-15T07:15:48;12.73;;;8.68;;
48727;SDS011;34527;45.618;5.130;2022-12-15T07:18:15;14.05;;;8.75;;
48727;SDS011;34527;45.618;5.130;2022-12-15T07:20:41;17.27;;;10.20;;
48727;SDS011;34527;45.618;5.130;2022-12-15T07:23:08;21.30;;;12.13;;
48727;SDS011;34527;45.618;5.130;2022-12-15T07:25:34;20.73;;;11.80;;
48727;SDS011;34527;45.618;5.130;2022-12-15T07:28:01;18.17;;;11.35;;
48727;SDS011;34527;45.618;5.130;2022-12-15T07:30:27;18.98;;;11.43;;
48727;SDS011;34527;45.618;5.130;2022-12-15T07:32:53;18.98;;;11.57;;
48727;SDS011;34527;45.618;5.130;2022-12-15T07:35:19;16.33;;;11.57;;
48727;SDS011;34527;45.618;5.130;2022-12-15T07:37:45;19.95;;;11.38;;
48727;SDS011;34527;45.618;5.130;2022-12-15T07:40:10;15.43;;;10.60;;
48727;SDS011;34527;45.618;5.130;2022-12-15T07:42:36;16.33;;;11.95;;
48727;SDS011;34527;45.618;5.130;2022-12-15T07:45:03;16.95;;;11.48;;
48727;SDS011;34527;45.618;5.130;2022-12-15T07:47:29;13.90;;;10.48;;
48727;SDS011;34527;45.618;5.130;2022-12-15T07:49:56;15.25;;;10.85;;
48727;SDS011;34527;45.618;5.130;2022-12-15T07:52:22;14.95;;;10.50;;
48727;SDS011;34527;45.618;5.130;2022-12-15T07:54:48;15.63;;;10.52;;
48727;SDS011;34527;45.618;5.130;2022-12-15T07:57:14;13.93;;;10.27;;
48727;SDS011;34527;45.618;5.130;2022-12-15T07:59:41;15.35;;;10.93;;
48727;SDS011;34527;45.618;5.130;2022-12-15T08:02:08;14.60;;;10.65;;
48727;SDS011;34527;45.618;5.130;2022-12-15T08:04:35;12.90;;;10.27;;
48727;SDS011;34527;45.618;5.130;2022-12-15T08:07:02;16.10;;;11.43;;
48727;SDS011;34527;45.618;5.130;2022-12-15T08:09:28;15.50;;;11.07;;
48727;SDS011;34527;45.618;5.130;2022-12-15T08:11:55;18.88;;;11.57;;
48727;SDS011;34527;45.618;5.130;2022-12-15T08:14:21;13.13;;;10.18;;
48727;SDS011;34527;45.618;5.130;2022-12-15T08:16:48;15.13;;;10.43;;
48727;SDS011;34527;45.618;5.130;2022-12-15T08:19:14;16.73;;;9.98;;
48727;SDS011;34527;45.618;5.130;2022-12-15T08:21:42;14.93;;;10.60;;
48727;SDS011;34527;45.618;5.130;2022-12-15T08:24:09;17.25;;;10.82;;
48727;SDS011;34527;45.618;5.130;2022-12-15T08:26:36;15.93;;;10.43;;
48727;SDS011;34527;45.618;5.130;2022-12-15T08:29:06;16.38;;;11.95;;
48727;SDS011;34527;45.618;5.130;2022-12-15T08:31:34;16.40;;;12.00;;
48727;SDS011;34527;45.618;5.130;2022-12-15T08:34:01;18.60;;;12.50;;
48727;SDS011;34527;45.618;5.130;2022-12-15T08:36:27;19.27;;;13.48;;
48727;SDS011;34527;45.618;5.130;2022-12-15T08:38:56;16.52;;;12.77;;
48727;SDS011;34527;45.618;5.130;2022-12-15T08:41:25;20.98;;;15.07;;
48727;SDS011;34527;45.618;5.130;2022-12-15T08:43:54;20.85;;;13.82;;
48727;SDS011;34527;45.618;5.130;2022-12-15T08:46:22;18.55;;;13.43;;
48727;SDS011;34527;45.618;5.130;2022-12-15T08:48:51;26.27;;;15.18;;
48727;SDS011;34527;45.618;5.130;2022-12-15T08:51:17;22.90;;;14.70;;
48727;SDS011;34527;45.618;5.130;2022-12-15T08:53:44;24.75;;;15.48;;
48727;SDS011;34527;45.618;5.130;2022-12-15T08:56:16;21.67;;;15.50;;
48727;SDS011;34527;45.618;5.130;2022-12-15T08:58:44;23.85;;;15.23;;
48727;SDS011;34527;45.618;5.130;2022-12-15T09:01:12;21.65;;;15.05;;
48727;SDS011;34527;45.618;5.130;2022-12-15T09:03:41;22.13;;;15.73;;
48727;SDS011;34527;45.618;5.130;2022-12-15T09:06:10;23.45;;;15.40;;
48727;SDS011;34527;45.618;5.130;2022-12-15T09:08:41;22.33;;;15.60;;
48727;SDS011;34527;45.618;5.130;2022-12-15T09:11:08;23.58;;;15.80;;
48727;SDS011;34527;45.618;5.130;2022-12-15T09:13:36;23.73;;;16.33;;
48727;SDS011;34527;45.618;5.130;2022-12-15T09:16:14;23.27;;;16.67;;
48727;SDS011;34527;45.618;5.130;2022-12-15T09:18:46;23.85;;;15.82;;
48727;SDS011;34527;45.618;5.130;2022-12-15T09:21:16;24.30;;;16.77;;
48727;SDS011;34527;45.618;5.130;2022-12-15T09:23:47;21.50;;;15.88;;
48727;SDS011;34527;45.618;5.130;2022-12-15T09:26:15;23.40;;;16.20;;
48727;SDS011;34527;45.618;5.130;2022-12-15T09:28:42;25.77;;;16.63;;
48727;SDS011;34527;45.618;5.130;2022-12-15T09:31:16;25.30;;;17.25;;
48727;SDS011;34527;45.618;5.130;2022-12-15T09:33:46;24.88;;;16.58;;
48727;SDS011;34527;45.618;5.130;2022-12-15T09:36:13;23.40;;;15.60;;
48727;SDS011;34527;45.618;5.130;2022-12-15T09:38:40;22.63;;;15.90;;
48727;SDS011;34527;45.618;5.130;2022-12-15T09:44:01;23.10;;;15.73;;
48727;SDS011;34527;45.618;5.130;2022-12-15T09:46:44;23.42;;;16.05;;
48727;SDS011;34527;45.618;5.130;2022-12-15T09:52:19;20.20;;;15.50;;
48727;SDS011;34527;45.618;5.130;2022-12-15T09:54:51;25.80;;;15.95;;
48727;SDS011;34527;45.618;5.130;2022-12-15T09:57:24;24.77;;;16.75;;
48727;SDS011;34527;45.618;5.130;2022-12-15T10:00:13;21.05;;;15.52;;
48727;SDS011;34527;45.618;5.130;2022-12-15T10:08:20;20.67;;;14.70;;
48727;SDS011;34527;45.618;5.130;2022-12-15T10:11:01;20.08;;;15.40;;
48727;SDS011;34527;45.618;5.130;2022-12-15T10:13:37;23.55;;;15.77;;
48727;SDS011;34527;45.618;5.130;2022-12-15T10:16:20;21.17;;;14.80;;
48727;SDS011;34527;45.618;5.130;2022-12-15T10:18:53;20.45;;;14.43;;
48727;SDS011;34527;45.618;5.130;2022-12-15T10:21:31;19.52;;;13.60;;
48727;SDS011;34527;45.618;5.130;2022-12-15T10:24:00;21.25;;;14.10;;
48727;SDS011;34527;45.618;5.130;2022-12-15T10:26:40;20.55;;;14.70;;
48727;SDS011;34527;45.618;5.130;2022-12-15T10:31:51;21.17;;;14.90;;
48727;SDS011;34527;45.618;5.130;2022-12-15T10:34:38;23.08;;;15.32;;
48727;SDS011;34527;45.618;5.130;2022-12-15T10:37:05;23.42;;;15.57;;
48727;SDS011;34527;45.618;5.130;2022-12-15T10:39:38;21.63;;;15.52;;
48727;SDS011;34527;45.618;5.130;2022-12-15T10:42:17;22.33;;;15.20;;
48727;SDS011;34527;45.618;5.130;2022-12-15T10:44:56;23.15;;;15.18;;
48727;SDS011;34527;45.618;5.130;2022-12-15T10:47:28;20.65;;;15.52;;
48727;SDS011;34527;45.618;5.130;2022-12-15T10:50:14;23.35;;;15.23;;
48727;SDS011;34527;45.618;5.130;2022-12-15T10:52:49;22.42;;;15.10;;
48727;SDS011;34527;45.618;5.130;2022-12-15T10:58:03;23.48;;;16.48;;
48727;SDS011;34527;45.618;5.130;2022-12-15T11:00:39;22.50;;;15.07;;
48727;SDS011;34527;45.618;5.130;2022-12-15T11:03:19;21.88;;;15.45;;
48727;SDS011;34527;45.618;5.130;2022-12-15T11:05:54;22.35;;;16.05;;
48727;SDS011;34527;45.618;5.130;2022-12-15T11:08:21;23.30;;;16.80;;
48727;SDS011;34527;45.618;5.130;2022-12-15T11:10:50;23.60;;;16.92;;
48727;SDS011;34527;45.618;5.130;2022-12-15T11:13:36;45.50;;;27.50;;
48727;SDS011;34527;45.618;5.130;2022-12-15T11:16:10;38.25;;;23.23;;
48727;SDS011;34527;45.618;5.130;2022-12-15T11:18:50;40.92;;;25.40;;
48727;SDS011;34527;45.618;5.130;2022-12-15T11:21:35;27.67;;;18.50;;
48727;SDS011;34527;45.618;5.130;2022-12-15T11:27:09;26.17;;;16.90;;
48727;SDS011;34527;45.618;5.130;2022-12-15T11:29:45;24.60;;;17.80;;
48727;SDS011;34527;45.618;5.130;2022-12-15T11:32:19;26.52;;;17.80;;
48727;SDS011;34527;45.618;5.130;2022-12-15T11:34:50;23.10;;;16.80;;
48727;SDS011;34527;45.618;5.130;2022-12-15T11:42:52;25.45;;;17.35;;
48727;SDS011;34527;45.618;5.130;2022-12-15T11:46:05;25.63;;;16.77;;
48727;SDS011;34527;45.618;5.130;2022-12-15T11:51:43;24.02;;;15.93;;
48727;SDS011;34527;45.618;5.130;2022-12-15T12:00:03;22.60;;;15.82;;
48727;SDS011;34527;45.618;5.130;2022-12-15T12:02:34;24.80;;;16.90;;
48727;SDS011;34527;45.618;5.130;2022-12-15T12:07:54;23.88;;;17.02;;
48727;SDS011;34527;45.618;5.130;2022-12-15T12:15:53;22.63;;;16.55;;
48727;SDS011;34527;45.618;5.130;2022-12-15T12:18:32;27.10;;;16.10;;
48727;SDS011;34527;45.618;5.130;2022-12-15T12:21:08;26.75;;;16.08;;
48727;SDS011;34527;45.618;5.130;2022-12-15T12:23:44;20.52;;;15.65;;
48727;SDS011;34527;45.618;5.130;2022-12-15T12:28:49;21.45;;;15.68;;
48727;SDS011;34527;45.618;5.130;2022-12-15T12:34:27;23.15;;;16.38;;
48727;SDS011;34527;45.618;5.130;2022-12-15T12:37:22;24.88;;;16.50;;
48727;SDS011;34527;45.618;5.130;2022-12-15T12:39:55;26.92;;;17.00;;
48727;SDS011;34527;45.618;5.130;2022-12-15T12:42:34;28.05;;;17.30;;
48727;SDS011;34527;45.618;5.130;2022-12-15T12:45:09;25.20;;;17.98;;
48727;SDS011;34527;45.618;5.130;2022-12-15T12:47:36;21.30;;;16.10;;
48727;SDS011;34527;45.618;5.130;2022-12-15T12:50:14;23.80;;;16.70;;
48727;SDS011;34527;45.618;5.130;2022-12-15T12:52:52;25.02;;;17.25;;
48727;SDS011;34527;45.618;5.130;2022-12-15T12:55:24;22.85;;;16.58;;
48727;SDS011;34527;45.618;5.130;2022-12-15T12:58:00;27.48;;;17.92;;
48727;SDS011;34527;45.618;5.130;2022-12-15T13:00:28;25.48;;;17.08;;
48727;SDS011;34527;45.618;5.130;2022-12-15T13:05:35;26.52;;;18.40;;
48727;SDS011;34527;45.618;5.130;2022-12-15T13:10:32;23.77;;;17.60;;
48727;SDS011;34527;45.618;5.130;2022-12-15T13:12:58;24.02;;;17.45;;
48727;SDS011;34527;45.618;5.130;2022-12-15T13:15:45;27.65;;;17.42;;
48727;SDS011;34527;45.618;5.130;2022-12-15T13:18:18;26.70;;;17.92;;
48727;SDS011;34527;45.618;5.130;2022-12-15T13:20:47;25.73;;;18.75;;
48727;SDS011;34527;45.618;5.130;2022-12-15T13:26:29;27.20;;;18.42;;
48727;SDS011;34527;45.618;5.130;2022-12-15T13:46:44;26.50;;;18.23;;
48727;SDS011;34527;45.618;5.130;2022-12-15T13:49:13;26.48;;;18.10;;
48727;SDS011;34527;45.618;5.130;2022-12-15T13:52:24;26.80;;;18.73;;
48727;SDS011;34527;45.618;5.130;2022-12-15T13:54:50;26.58;;;19.05;;
48727;SDS011;34527;45.618;5.130;2022-12-15T13:57:19;26.48;;;19.40;;
48727;SDS011;34527;45.618;5.130;2022-12-15T13:59:49;27.85;;;19.58;;
48727;SDS011;34527;45.618;5.130;2022-12-15T14:02:22;31.80;;;20.80;;
48727;SDS011;34527;45.618;5.130;2022-12-15T14:12:50;34.58;;;20.70;;
48727;SDS011;34527;45.618;5.130;2022-12-15T14:15:17;25.75;;;16.85;;
48727;SDS011;34527;45.618;5.130;2022-12-15T14:17:49;37.90;;;18.20;;
48727;SDS011;34527;45.618;5.130;2022-12-15T14:20:18;27.25;;;17.88;;
48727;SDS011;34527;45.618;5.130;2022-12-15T14:22:49;37.65;;;16.33;;
48727;SDS011;34527;45.618;5.130;2022-12-15T14:25:24;24.10;;;14.05;;
48727;SDS011;34527;45.618;5.130;2022-12-15T14:27:53;22.85;;;13.48;;
48727;SDS011;34527;45.618;5.130;2022-12-15T14:30:27;21.42;;;13.02;;
48727;SDS011;34527;45.618;5.130;2022-12-15T14:33:07;22.55;;;13.55;;
48727;SDS011;34527;45.618;5.130;2022-12-15T14:35:40;21.35;;;11.48;;
48727;SDS011;34527;45.618;5.130;2022-12-15T14:38:13;25.52;;;13.35;;
48727;SDS011;34527;45.618;5.130;2022-12-15T14:40:42;22.13;;;12.95;;
48727;SDS011;34527;45.618;5.130;2022-12-15T14:43:11;25.08;;;12.95;;
48727;SDS011;34527;45.618;5.130;2022-12-15T14:48:18;24.00;;;11.25;;
48727;SDS011;34527;45.618;5.130;2022-12-15T14:50:53;19.77;;;10.57;;
48727;SDS011;34527;45.618;5.130;2022-12-15T14:53:22;19.83;;;10.85;;
48727;SDS011;34527;45.618;5.130;2022-12-15T14:55:55;16.38;;;9.25;;
48727;SDS011;34527;45.618;5.130;2022-12-15T14:58:33;11.48;;;7.60;;
48727;SDS011;34527;45.618;5.130;2022-12-15T15:00:59;10.75;;;6.55;;
48727;SDS011;34527;45.618;5.130;2022-12-15T15:03:34;10.88;;;6.80;;
48727;SDS011;34527;45.618;5.130;2022-12-15T15:08:42;14.02;;;7.07;;
48727;SDS011;34527;45.618;5.130;2022-12-15T15:11:22;10.65;;;5.82;;
48727;SDS011;34527;45.618;5.130;2022-12-15T15:13:56;8.15;;;4.85;;
48727;SDS011;34527;45.618;5.130;2022-12-15T15:16:34;8.95;;;5.93;;
48727;SDS011;34527;45.618;5.130;2022-12-15T15:19:01;16.10;;;7.85;;
48727;SDS011;34527;45.618;5.130;2022-12-15T15:21:28;13.40;;;7.18;;
48727;SDS011;34527;45.618;5.130;2022-12-15T15:26:36;13.27;;;8.43;;
48727;SDS011;34527;45.618;5.130;2022-12-15T15:29:03;11.00;;;7.28;;
48727;SDS011;34527;45.618;5.130;2022-12-15T15:31:51;15.05;;;7.82;;
48727;SDS011;34527;45.618;5.130;2022-12-15T15:34:17;14.63;;;8.98;;
48727;SDS011;34527;45.618;5.130;2022-12-15T15:36:43;15.80;;;8.65;;
48727;SDS011;34527;45.618;5.130;2022-12-15T15:39:11;15.15;;;8.32;;
48727;SDS011;34527;45.618;5.130;2022-12-15T15:41:39;8.73;;;5.97;;
48727;SDS011;34527;45.618;5.130;2022-12-15T15:44:09;11.88;;;7.38;;
48727;SDS011;34527;45.618;5.130;2022-12-15T15:46:41;8.57;;;6.47;;
48727;SDS011;34527;45.618;5.130;2022-12-15T15:49:14;8.05;;;5.82;;
48727;SDS011;34527;45.618;5.130;2022-12-15T15:51:43;7.57;;;5.20;;
48727;SDS011;34527;45.618;5.130;2022-12-15T15:54:11;8.25;;;5.57;;
48727;SDS011;34527;45.618;5.130;2022-12-15T15:56:38;9.68;;;6.05;;
48727;SDS011;34527;45.618;5.130;2022-12-15T15:59:12;9.93;;;5.75;;
48727;SDS011;34527;45.618;5.130;2022-12-15T16:01:40;9.75;;;6.07;;
48727;SDS011;34527;45.618;5.130;2022-12-15T16:04:10;8.75;;;5.13;;
48727;SDS011;34527;45.618;5.130;2022-12-15T16:06:36;8.27;;;4.90;;
48727;SDS011;34527;45.618;5.130;2022-12-15T16:09:02;10.65;;;5.70;;
48727;SDS011;34527;45.618;5.130;2022-12-15T16:11:31;8.00;;;5.38;;
48727;SDS011;34527;45.618;5.130;2022-12-15T16:13:57;9.07;;;5.05;;
48727;SDS011;34527;45.618;5.130;2022-12-15T16:16:26;8.38;;;5.32;;
48727;SDS011;34527;45.618;5.130;2022-12-15T16:18:56;8.93;;;5.28;;
48727;SDS011;34527;45.618;5.130;2022-12-15T16:21:23;7.20;;;5.43;;
48727;SDS011;34527;45.618;5.130;2022-12-15T16:23:51;7.78;;;5.35;;
48727;SDS011;34527;45.618;5.130;2022-12-15T16:26:24;9.23;;;6.00;;
48727;SDS011;34527;45.618;5.130;2022-12-15T16:28:53;8.23;;;5.38;;
48727;SDS011;34527;45.618;5.130;2022-12-15T16:31:32;8.75;;;4.90;;
48727;SDS011;34527;45.618;5.130;2022-12-15T16:34:11;7.82;;;5.30;;
48727;SDS011;34527;45.618;5.130;2022-12-15T16:36:38;8.25;;;5.53;;
48727;SDS011;34527;45.618;5.130;2022-12-15T16:39:04;9.60;;;5.72;;
48727;SDS011;34527;45.618;5.130;2022-12-15T16:42:04;12.88;;;6.80;;
48727;SDS011;34527;45.618;5.130;2022-12-15T16:44:35;11.50;;;6.55;;
48727;SDS011;34527;45.618;5.130;2022-12-15T16:47:01;9.82;;;5.93;;
48727;SDS011;34527;45.618;5.130;2022-12-15T16:49:27;8.27;;;6.07;;
48727;SDS011;34527;45.618;5.130;2022-12-15T16:51:55;10.40;;;5.65;;
48727;SDS011;34527;45.618;5.130;2022-12-15T16:54:27;9.05;;;6.47;;
48727;SDS011;34527;45.618;5.130;2022-12-15T16:59:22;7.03;;;4.97;;
48727;SDS011;34527;45.618;5.130;2022-12-15T17:01:51;6.97;;;4.95;;